Time;durP1;ratioP1;P1;durP2;ratioP2;P2;SDS_P1;SDS_P2;PMS_P1;PMS_P2;Temp;Humidity;BMP_temperature;BMP_pressure;BME280_temperature;BME280_humidity;BME280_pressure;Samples;Min_cycle;Max_cycle;Signal;HPM_P1;HPM_P2
2023/04/16 00:00:55;;;;;;;75.90;32.97;;;9.20;99.90;;;;;;5054530;28;20045;-85
2023/04/16 00:03:21;;;;;;;75.90;32.80;;;9.30;99.90;;;;;;5041613;28;20108;-86
2023/04/16 00:05:47;;;;;;;81.28;32.67;;;9.30;99.90;;;;;;5024484;28;20131;-85
2023/04/16 00:08:12;;;;;;;79.93;33.58;;;9.30;99.90;;;;;;5025048;28;20302;-85
2023/04/16 00:10:38;;;;;;;84.45;35.08;;;9.20;99.90;;;;;;5040581;28;20073;-85
2023/04/16 00:13:04;;;;;;;80.90;34.35;;;9.30;99.90;;;;;;5057253;28;20037;-85
2023/04/16 00:15:30;;;;;;;77.70;33.15;;;9.30;99.90;;;;;;5040076;28;20064;-85
2023/04/16 00:17:55;;;;;;;84.72;32.00;;;9.30;99.90;;;;;;5023852;28;20045;-85
2023/04/16 00:20:21;;;;;;;80.50;33.67;;;9.30;99.90;;;;;;5056524;28;20029;-85
2023/04/16 00:22:47;;;;;;;85.13;36.40;;;9.20;99.90;;;;;;5040064;28;20098;-86
2023/04/16 00:25:13;;;;;;;85.10;36.00;;;9.20;99.90;;;;;;5057099;28;20136;-85
2023/04/16 00:27:39;;;;;;;90.43;34.97;;;9.20;99.90;;;;;;5040709;28;20041;-86
2023/04/16 00:30:06;;;;;;;91.32;37.75;;;9.20;99.90;;;;;;5006344;28;20033;-85
2023/04/16 00:32:31;;;;;;;87.13;35.20;;;9.20;99.90;;;;;;5037944;28;20037;-85
2023/04/16 00:34:57;;;;;;;89.97;35.05;;;9.20;99.90;;;;;;5024164;28;20047;-85
2023/04/16 00:37:23;;;;;;;88.20;33.72;;;9.20;99.90;;;;;;5025152;28;20060;-86
2023/04/16 00:39:49;;;;;;;88.18;35.60;;;9.10;99.90;;;;;;5024956;28;20057;-85
2023/04/16 00:42:15;;;;;;;91.40;35.15;;;9.10;99.90;;;;;;5023320;28;20041;-85
2023/04/16 00:44:41;;;;;;;82.60;34.13;;;9.10;99.90;;;;;;5037663;28;20051;-85
2023/04/16 00:47:07;;;;;;;84.25;37.05;;;9.10;99.90;;;;;;5055818;28;20068;-85
2023/04/16 00:49:33;;;;;;;85.32;35.58;;;9.10;99.90;;;;;;5039833;28;20041;-85
2023/04/16 00:52:01;;;;;;;83.18;34.67;;;9.10;99.90;;;;;;5038890;28;20546;-85
2023/04/16 00:54:27;;;;;;;94.28;37.50;;;9.10;99.90;;;;;;5039895;28;20809;-85
2023/04/16 00:56:53;;;;;;;98.43;36.15;;;9.10;99.90;;;;;;5023123;28;20071;-84
2023/04/16 00:59:19;;;;;;;95.13;36.55;;;9.10;99.90;;;;;;5038779;28;20479;-86
2023/04/16 01:01:45;;;;;;;109.05;36.65;;;9.10;99.90;;;;;;5024299;28;20063;-85
2023/04/16 01:04:11;;;;;;;98.88;38.28;;;9.10;99.90;;;;;;5039174;28;20048;-85
2023/04/16 01:06:36;;;;;;;98.63;39.53;;;9.10;99.90;;;;;;5026667;28;20033;-85
2023/04/16 01:09:02;;;;;;;98.28;38.42;;;9.10;99.90;;;;;;5024979;28;20175;-86
2023/04/16 01:11:28;;;;;;;102.25;38.25;;;9.10;99.90;;;;;;5039306;28;20041;-85
2023/04/16 01:13:53;;;;;;;101.60;40.55;;;9.10;99.90;;;;;;5021949;28;20039;-85
2023/04/16 01:16:19;;;;;;;109.40;41.30;;;9.10;99.90;;;;;;5022019;28;20223;-85
2023/04/16 01:18:45;;;;;;;104.15;38.72;;;9.10;99.90;;;;;;5022705;28;20040;-85
2023/04/16 01:21:11;;;;;;;104.70;40.47;;;9.10;99.90;;;;;;5024407;28;20048;-84
2023/04/16 01:23:36;;;;;;;109.57;39.95;;;9.10;99.90;;;;;;5023900;28;20219;-85
2023/04/16 01:26:02;;;;;;;105.25;39.58;;;9.20;99.90;;;;;;5022442;28;20095;-85
2023/04/16 01:28:28;;;;;;;119.97;40.15;;;9.20;99.90;;;;;;5023599;28;20142;-85
2023/04/16 01:30:53;;;;;;;155.55;43.33;;;9.10;99.90;;;;;;5053537;28;20032;-85
2023/04/16 01:33:20;;;;;;;133.90;42.75;;;9.00;99.90;;;;;;5055350;28;20049;-84
2023/04/16 01:35:46;;;;;;;142.10;41.10;;;9.00;99.90;;;;;;5023634;28;20037;-85
2023/04/16 01:38:11;;;;;;;147.73;42.65;;;9.00;99.90;;;;;;5022503;28;20294;-84
2023/04/16 01:40:37;;;;;;;150.60;43.60;;;9.00;99.90;;;;;;5022086;28;20459;-86
2023/04/16 01:43:03;;;;;;;165.40;42.90;;;9.00;99.90;;;;;;5022009;28;20037;-85
2023/04/16 01:45:31;;;;;;;170.65;43.92;;;8.90;99.90;;;;;;5019665;28;20547;-85
2023/04/16 01:47:57;;;;;;;108.53;40.22;;;9.00;99.90;;;;;;5026092;28;20591;-85
2023/04/16 01:50:22;;;;;;;132.63;44.58;;;9.00;99.90;;;;;;5021984;28;20041;-85
2023/04/16 01:52:48;;;;;;;133.60;43.30;;;9.00;99.90;;;;;;5027713;28;20047;-85
2023/04/16 01:55:14;;;;;;;133.02;44.15;;;9.00;99.90;;;;;;5021654;28;20065;-85
2023/04/16 01:57:40;;;;;;;142.95;41.42;;;9.00;99.90;;;;;;5027233;28;20037;-85
2023/04/16 02:00:07;;;;;;;160.77;43.85;;;9.00;99.90;;;;;;5055879;28;20045;-85
2023/04/16 02:02:34;;;;;;;191.27;49.03;;;9.00;99.90;;;;;;5051931;28;20041;-85
2023/04/16 02:05:00;;;;;;;187.02;49.13;;;9.00;99.90;;;;;;5052974;28;20505;-85
2023/04/16 02:07:26;;;;;;;138.30;44.83;;;9.10;99.90;;;;;;5024771;28;20075;-85
2023/04/16 02:09:52;;;;;;;156.52;44.50;;;9.10;99.90;;;;;;5024838;28;20056;-85
2023/04/16 02:12:19;;;;;;;151.73;44.45;;;9.10;99.90;;;;;;5025144;28;20049;-85
2023/04/16 02:14:45;;;;;;;177.65;48.25;;;9.10;99.90;;;;;;5022094;28;20433;-84
2023/04/16 02:17:11;;;;;;;171.70;46.25;;;9.20;99.90;;;;;;5021914;28;20092;-84
2023/04/16 02:19:36;;;;;;;147.55;44.20;;;9.20;99.90;;;;;;5035620;28;20040;-85
2023/04/16 02:22:02;;;;;;;156.20;44.53;;;9.20;99.90;;;;;;5021882;28;20048;-85
2023/04/16 02:24:28;;;;;;;164.65;44.92;;;9.20;99.90;;;;;;5036354;28;20029;-85
2023/04/16 02:26:55;;;;;;;138.27;43.97;;;9.30;99.90;;;;;;5038509;28;20045;-85
2023/04/16 02:29:21;;;;;;;127.40;42.20;;;9.30;99.90;;;;;;5035300;28;20116;-85
2023/04/16 02:31:47;;;;;;;148.77;44.95;;;9.30;99.90;;;;;;5037375;28;20048;-85
2023/04/16 02:34:13;;;;;;;153.32;44.28;;;9.30;99.90;;;;;;5022885;28;20057;-85
2023/04/16 02:36:39;;;;;;;139.50;47.70;;;9.30;99.90;;;;;;5039474;28;20102;-85
2023/04/16 02:39:05;;;;;;;136.70;43.08;;;9.30;99.90;;;;;;5023084;28;20122;-85
2023/04/16 02:41:31;;;;;;;132.95;42.30;;;9.30;99.90;;;;;;5026976;28;20033;-86
2023/04/16 02:43:56;;;;;;;123.95;42.17;;;9.30;99.90;;;;;;5026801;28;20529;-85
2023/04/16 02:46:22;;;;;;;141.38;43.08;;;9.30;99.90;;;;;;5035365;28;20037;-85
2023/04/16 02:48:48;;;;;;;127.75;39.78;;;9.30;99.90;;;;;;5022757;28;20478;-85
2023/04/16 02:51:13;;;;;;;124.40;42.28;;;9.30;99.90;;;;;;5023475;28;20045;-85
2023/04/16 02:53:39;;;;;;;126.32;43.55;;;9.30;99.90;;;;;;5021237;28;20037;-84
2023/04/16 02:56:05;;;;;;;109.68;42.10;;;9.30;99.90;;;;;;5024838;28;20381;-85
2023/04/16 02:58:31;;;;;;;124.95;43.38;;;9.30;99.90;;;;;;5037988;28;20145;-85
2023/04/16 03:00:57;;;;;;;125.18;42.22;;;9.30;99.90;;;;;;5022761;28;20116;-84
2023/04/16 03:03:22;;;;;;;116.63;41.72;;;9.30;99.90;;;;;;5021967;28;20079;-85
2023/04/16 03:05:48;;;;;;;129.80;41.20;;;9.40;99.90;;;;;;5024463;28;20036;-85
2023/04/16 03:08:14;;;;;;;122.00;39.60;;;9.30;99.90;;;;;;5040524;28;20124;-86
2023/04/16 03:10:40;;;;;;;107.13;39.95;;;9.30;99.90;;;;;;5026463;28;20041;-85
2023/04/16 03:13:06;;;;;;;136.82;41.47;;;9.30;99.90;;;;;;5026747;28;20068;-85
2023/04/16 03:15:32;;;;;;;123.60;40.13;;;9.30;99.90;;;;;;5023764;28;20040;-85
2023/04/16 03:17:58;;;;;;;130.35;40.22;;;9.40;99.90;;;;;;5027064;28;20473;-85
2023/04/16 03:20:24;;;;;;;125.03;40.75;;;9.30;99.90;;;;;;5041218;28;20045;-85
2023/04/16 03:22:53;;;;;;;107.45;36.45;;;9.30;99.90;;;;;;5026221;28;20416;-85
2023/04/16 03:25:19;;;;;;;128.25;41.45;;;9.30;99.90;;;;;;5041675;28;20955;-85
2023/04/16 03:27:45;;;;;;;112.25;37.78;;;9.30;99.90;;;;;;5041585;28;20037;-85
2023/04/16 03:30:11;;;;;;;120.60;42.67;;;9.30;99.90;;;;;;5025505;28;20051;-85
2023/04/16 03:32:38;;;;;;;106.90;37.40;;;9.20;99.90;;;;;;5041237;28;20052;-85
2023/04/16 03:35:05;;;;;;;102.35;37.92;;;9.20;99.90;;;;;;5042566;28;20052;-85
2023/04/16 03:37:30;;;;;;;102.82;38.95;;;9.20;99.90;;;;;;5040894;28;20408;-85
2023/04/16 03:40:05;;;;;;;100.13;37.63;;;9.20;99.90;;;;;;5025158;28;20536;-85
2023/04/16 03:42:31;;;;;;;100.60;37.88;;;9.20;99.90;;;;;;5025967;28;20140;-85
2023/04/16 03:44:57;;;;;;;119.45;41.03;;;9.20;99.90;;;;;;5028861;28;20053;-85
2023/04/16 03:47:22;;;;;;;106.03;38.75;;;9.10;99.90;;;;;;5040832;28;20048;-85
2023/04/16 03:49:48;;;;;;;108.05;37.95;;;9.10;99.90;;;;;;5058798;28;20037;-85
2023/04/16 03:52:13;;;;;;;102.63;37.33;;;9.10;99.90;;;;;;5025100;28;20063;-85
2023/04/16 03:54:39;;;;;;;106.20;36.85;;;9.10;99.90;;;;;;5024526;28;20044;-85
2023/04/16 03:57:05;;;;;;;92.50;35.63;;;9.10;99.90;;;;;;5041294;28;20043;-86
2023/04/16 03:59:30;;;;;;;96.90;35.92;;;9.10;99.90;;;;;;5057218;28;20488;-84
2023/04/16 04:01:56;;;;;;;92.43;37.97;;;9.10;99.90;;;;;;5040044;28;20036;-85
2023/04/16 04:04:21;;;;;;;99.88;38.15;;;9.00;99.90;;;;;;5025532;28;20029;-85
2023/04/16 04:06:47;;;;;;;94.05;35.45;;;9.10;99.90;;;;;;5041262;28;20068;-86
2023/04/16 04:09:15;;;;;;;93.15;35.38;;;9.00;99.90;;;;;;5040181;28;20166;-85
2023/04/16 04:11:41;;;;;;;89.30;35.42;;;9.00;99.90;;;;;;5056150;28;20151;-85
2023/04/16 04:14:07;;;;;;;88.28;34.78;;;9.10;99.90;;;;;;5040220;28;20438;-85
2023/04/16 04:16:32;;;;;;;87.43;34.08;;;9.10;99.90;;;;;;5039795;28;20377;-85
2023/04/16 04:18:59;;;;;;;88.25;33.88;;;9.10;99.90;;;;;;5040124;28;20139;-86
2023/04/16 04:21:28;;;;;;;91.40;34.38;;;9.10;99.90;;;;;;5040965;28;20040;-85
2023/04/16 04:23:54;;;;;;;86.32;36.22;;;9.00;99.90;;;;;;5023555;28;20080;-85
2023/04/16 04:26:20;;;;;;;95.65;36.15;;;9.10;99.90;;;;;;5024719;28;20041;-85
2023/04/16 04:28:46;;;;;;;96.93;35.78;;;9.10;99.90;;;;;;5040090;28;20044;-85
2023/04/16 04:31:12;;;;;;;108.68;36.75;;;9.00;99.90;;;;;;5056397;28;20182;-85
2023/04/16 04:33:38;;;;;;;98.18;38.47;;;9.00;99.90;;;;;;5040821;28;20045;-85
2023/04/16 04:36:04;;;;;;;96.80;34.40;;;9.00;99.90;;;;;;5028123;28;20045;-86
2023/04/16 04:38:33;;;;;;;94.18;35.55;;;9.00;99.90;;;;;;5029571;28;20088;-85
2023/04/16 04:40:58;;;;;;;102.90;36.30;;;9.00;99.90;;;;;;5039777;28;20049;-85
2023/04/16 04:43:24;;;;;;;89.20;35.15;;;9.00;99.90;;;;;;5026695;28;20070;-85
2023/04/16 04:45:50;;;;;;;93.40;35.40;;;8.90;99.90;;;;;;5023473;28;20029;-86
2023/04/16 04:48:16;;;;;;;98.80;36.45;;;8.90;99.90;;;;;;5024303;28;20484;-85
2023/04/16 04:50:43;;;;;;;93.55;36.28;;;8.90;99.90;;;;;;5041022;28;20072;-85
2023/04/16 04:53:09;;;;;;;104.85;34.65;;;9.00;99.90;;;;;;5040461;28;20041;-86
2023/04/16 04:55:38;;;;;;;95.30;37.08;;;9.00;99.90;;;;;;5022971;28;20114;-85
2023/04/16 04:58:05;;;;;;;95.60;35.65;;;9.00;99.90;;;;;;5022248;28;20037;-85
2023/04/16 05:00:32;;;;;;;94.10;36.25;;;9.00;99.90;;;;;;5021518;28;20059;-85
2023/04/16 05:03:01;;;;;;;86.55;33.50;;;9.00;99.90;;;;;;5023903;28;20048;-85
2023/04/16 05:05:28;;;;;;;84.95;33.78;;;9.10;99.90;;;;;;5026139;28;20056;-85
2023/04/16 05:07:53;;;;;;;84.75;31.92;;;9.00;99.90;;;;;;5026414;28;20033;-85
2023/04/16 05:10:19;;;;;;;86.70;33.53;;;9.00;99.90;;;;;;5039147;28;20043;-85
2023/04/16 05:12:47;;;;;;;90.10;31.73;;;9.10;99.90;;;;;;5025630;28;20044;-85
2023/04/16 05:15:12;;;;;;;81.90;34.17;;;9.00;99.90;;;;;;5023297;28;20041;-85
2023/04/16 05:17:38;;;;;;;88.05;33.97;;;9.00;99.90;;;;;;5025469;28;20041;-90
2023/04/16 05:20:05;;;;;;;89.22;34.40;;;9.00;99.90;;;;;;5025920;28;20049;-90
2023/04/16 05:22:30;;;;;;;90.85;32.95;;;9.00;99.90;;;;;;5026273;28;20508;-91
2023/04/16 05:24:56;;;;;;;84.05;31.92;;;8.90;99.90;;;;;;5041555;28;20060;-90
2023/04/16 05:27:22;;;;;;;98.32;33.33;;;9.00;99.90;;;;;;5024720;28;20515;-91
2023/04/16 05:29:47;;;;;;;94.43;34.85;;;8.90;99.90;;;;;;5025505;28;20071;-89
2023/04/16 05:32:16;;;;;;;98.05;33.08;;;8.80;99.90;;;;;;5024680;28;20040;-90
2023/04/16 05:34:42;;;;;;;85.18;33.38;;;8.90;99.90;;;;;;5026648;28;20446;-91
2023/04/16 05:37:07;;;;;;;97.90;34.63;;;8.80;99.90;;;;;;5026478;28;20041;-90
2023/04/16 05:39:33;;;;;;;94.55;32.90;;;8.90;99.90;;;;;;5040027;28;20084;-90
2023/04/16 05:42:02;;;;;;;108.25;34.35;;;8.90;99.90;;;;;;5024852;28;20053;-90
2023/04/16 05:44:28;;;;;;;99.20;33.08;;;8.80;99.90;;;;;;5039973;28;20127;-90
2023/04/16 05:46:53;;;;;;;99.57;32.92;;;8.90;99.90;;;;;;5040879;28;20444;-90
2023/04/16 05:49:20;;;;;;;93.95;32.17;;;8.80;99.90;;;;;;5026180;28;20112;-90
2023/04/16 05:51:45;;;;;;;110.45;34.72;;;8.90;99.90;;;;;;5058335;28;20045;-90
2023/04/16 05:54:11;;;;;;;98.35;31.98;;;8.80;99.90;;;;;;5025886;28;20323;-90
2023/04/16 05:56:37;;;;;;;93.68;33.47;;;8.80;99.90;;;;;;5026275;28;20066;-89
2023/04/16 05:59:02;;;;;;;86.38;30.42;;;8.90;99.90;;;;;;5039274;28;20044;-90
2023/04/16 06:01:28;;;;;;;91.50;29.92;;;9.00;99.90;;;;;;5025389;28;20048;-90
2023/04/16 06:03:54;;;;;;;92.95;31.33;;;9.00;99.90;;;;;;5024840;28;20399;-89
2023/04/16 06:06:19;;;;;;;94.53;33.45;;;9.00;99.90;;;;;;5025507;28;20041;-88
2023/04/16 06:08:45;;;;;;;77.53;30.23;;;9.00;99.90;;;;;;5026940;28;20036;-89
2023/04/16 06:11:11;;;;;;;94.25;32.13;;;9.00;99.90;;;;;;5025832;28;20033;-90
2023/04/16 06:13:38;;;;;;;133.48;34.78;;;9.00;99.90;;;;;;5057738;28;20084;-90
2023/04/16 06:16:04;;;;;;;101.95;31.50;;;9.00;99.90;;;;;;5056579;28;20037;-90
2023/04/16 06:18:30;;;;;;;96.57;33.72;;;9.00;99.90;;;;;;5057775;28;20388;-91
2023/04/16 06:20:57;;;;;;;85.43;31.50;;;9.00;99.90;;;;;;5036597;28;20048;-90
2023/04/16 06:23:23;;;;;;;111.53;33.58;;;9.00;99.90;;;;;;5061455;28;20044;-89
2023/04/16 06:25:49;;;;;;;91.65;32.80;;;9.00;99.90;;;;;;5040676;28;20047;-90
2023/04/16 06:28:15;;;;;;;85.43;29.98;;;9.10;99.90;;;;;;5056535;28;20049;-90
2023/04/16 06:30:40;;;;;;;92.22;31.80;;;9.00;99.90;;;;;;5055497;28;20040;-89
2023/04/16 06:33:06;;;;;;;88.22;32.63;;;9.10;99.90;;;;;;5026611;28;20064;-90
2023/04/16 06:35:32;;;;;;;81.45;31.75;;;9.10;99.90;;;;;;5038805;28;20037;-91
2023/04/16 06:37:57;;;;;;;77.10;30.73;;;9.10;99.90;;;;;;5024660;28;20098;-90
2023/04/16 06:40:23;;;;;;;80.78;31.95;;;9.10;99.90;;;;;;5054504;28;20142;-91
2023/04/16 06:42:49;;;;;;;80.35;30.38;;;9.20;99.90;;;;;;5028152;28;20930;-90
2023/04/16 06:45:14;;;;;;;92.47;33.10;;;9.30;99.90;;;;;;5029262;28;20818;-90
2023/04/16 06:47:40;;;;;;;85.55;30.67;;;9.30;99.90;;;;;;5027430;28;20467;-90
2023/04/16 06:50:06;;;;;;;86.95;33.22;;;9.30;99.90;;;;;;5031798;28;20510;-89
2023/04/16 06:52:32;;;;;;;75.50;30.65;;;9.40;99.90;;;;;;5043897;28;20033;-90
2023/04/16 06:54:57;;;;;;;78.32;28.98;;;9.50;99.90;;;;;;5058281;28;20044;-91
2023/04/16 06:57:23;;;;;;;68.38;28.92;;;9.60;99.90;;;;;;5043385;28;20072;-89
2023/04/16 06:59:49;;;;;;;61.17;27.17;;;9.50;99.90;;;;;;5043246;28;20037;-90
2023/04/16 07:02:17;;;;;;;61.53;28.25;;;9.60;99.90;;;;;;5027787;28;20032;-89
2023/04/16 07:04:43;;;;;;;69.75;29.65;;;9.90;99.90;;;;;;5028303;28;20043;-90
2023/04/16 07:07:09;;;;;;;63.42;27.45;;;9.80;99.90;;;;;;5028749;28;20502;-90
2023/04/16 07:09:35;;;;;;;55.33;26.88;;;9.90;99.90;;;;;;5027870;28;20040;-90
2023/04/16 07:12:01;;;;;;;65.63;29.02;;;9.80;99.90;;;;;;5045664;28;20142;-90
2023/04/16 07:14:26;;;;;;;66.00;27.10;;;9.80;99.90;;;;;;5040873;28;20037;-91
2023/04/16 07:16:52;;;;;;;56.08;26.30;;;9.80;99.90;;;;;;5026788;28;20076;-90
2023/04/16 07:19:17;;;;;;;66.13;26.95;;;9.90;99.90;;;;;;5027901;28;20360;-89
2023/04/16 07:21:43;;;;;;;71.45;26.52;;;9.90;99.90;;;;;;5029480;28;20105;-90
2023/04/16 07:24:12;;;;;;;58.97;25.48;;;10.00;99.90;;;;;;5042978;28;20527;-90
2023/04/16 07:26:38;;;;;;;62.28;25.85;;;10.00;99.90;;;;;;5027116;28;20063;-89
2023/04/16 07:29:04;;;;;;;60.50;24.48;;;10.00;99.90;;;;;;5042200;28;20041;-90
2023/04/16 07:31:30;;;;;;;60.20;25.40;;;10.00;99.90;;;;;;5059751;28;20090;-90
2023/04/16 07:33:56;;;;;;;65.78;25.73;;;10.10;99.90;;;;;;5043513;28;20045;-91
2023/04/16 07:36:22;;;;;;;65.57;24.70;;;10.00;99.90;;;;;;5026881;28;20033;-90
2023/04/16 07:38:48;;;;;;;56.70;25.27;;;10.20;99.90;;;;;;5027006;28;20393;-90
2023/04/16 07:41:14;;;;;;;58.70;22.70;;;10.20;99.90;;;;;;5046024;28;20055;-90
2023/04/16 07:43:39;;;;;;;53.42;23.40;;;10.10;99.90;;;;;;5026787;28;20448;-91
2023/04/16 07:46:05;;;;;;;62.72;23.80;;;10.20;99.90;;;;;;5059351;28;20345;-91
2023/04/16 07:48:31;;;;;;;57.28;24.63;;;10.20;99.90;;;;;;5044090;28;20047;-90
2023/04/16 07:50:56;;;;;;;49.08;23.17;;;10.20;99.90;;;;;;5026345;28;20065;-91
2023/04/16 07:53:22;;;;;;;48.58;22.77;;;10.20;99.90;;;;;;5042660;28;20190;-90
2023/04/16 07:55:48;;;;;;;52.30;23.30;;;10.20;99.90;;;;;;5041541;28;20055;-91
2023/04/16 07:58:13;;;;;;;51.08;23.55;;;9.90;99.90;;;;;;5026394;28;20032;-90
2023/04/16 08:00:39;;;;;;;49.75;23.25;;;10.00;99.90;;;;;;5058333;28;20049;-90
2023/04/16 08:03:05;;;;;;;45.78;22.40;;;9.80;99.90;;;;;;5044835;28;20041;-90
2023/04/16 08:05:30;;;;;;;44.85;22.75;;;9.90;99.90;;;;;;5027509;28;20055;-90
2023/04/16 08:07:56;;;;;;;45.53;22.13;;;9.80;99.90;;;;;;5026509;28;20374;-91
2023/04/16 08:10:21;;;;;;;57.65;23.13;;;9.90;99.90;;;;;;5028645;28;20095;-90
2023/04/16 08:12:47;;;;;;;55.85;23.92;;;9.80;99.90;;;;;;5026824;28;20044;-90
2023/04/16 08:15:13;;;;;;;56.45;21.17;;;9.90;99.90;;;;;;5025518;28;20039;-90
2023/04/16 08:17:38;;;;;;;48.30;21.35;;;9.90;99.90;;;;;;5059126;28;20119;-91
2023/04/16 08:20:05;;;;;;;47.35;22.55;;;10.10;99.90;;;;;;5026221;28;20078;-90
2023/04/16 08:22:33;;;;;;;45.80;21.38;;;10.20;99.90;;;;;;5059600;28;20399;-90
2023/04/16 08:24:59;;;;;;;54.00;22.98;;;10.20;99.90;;;;;;5026812;28;20037;-90
2023/04/16 08:27:25;;;;;;;45.85;22.40;;;10.30;99.90;;;;;;5041223;28;20699;-90
2023/04/16 08:29:50;;;;;;;46.15;21.27;;;10.30;99.90;;;;;;5059386;28;20037;-90
2023/04/16 08:32:16;;;;;;;47.92;20.75;;;10.20;99.90;;;;;;5025808;28;20041;-91
2023/04/16 08:34:42;;;;;;;47.40;20.83;;;10.20;99.90;;;;;;5043669;28;20044;-90
2023/04/16 08:37:08;;;;;;;44.63;21.38;;;10.40;99.90;;;;;;5026007;28;20124;-91
2023/04/16 08:39:34;;;;;;;44.20;21.02;;;10.40;99.90;;;;;;5028167;28;20049;-90
2023/04/16 08:42:03;;;;;;;42.65;20.08;;;10.50;99.90;;;;;;5027745;28;20103;-91
2023/04/16 08:44:36;;;;;;;37.78;20.33;;;10.70;99.90;;;;;;5042643;28;20029;-91
2023/04/16 08:47:05;;;;;;;41.40;20.10;;;10.80;99.90;;;;;;5042305;28;20071;-90
2023/04/16 08:49:34;;;;;;;37.15;19.23;;;10.80;99.90;;;;;;5043053;28;20171;-90
2023/04/16 08:52:04;;;;;;;36.22;19.75;;;11.00;99.90;;;;;;5026551;28;20377;-90
2023/04/16 08:54:36;;;;;;;39.33;19.73;;;11.20;99.90;;;;;;5042889;28;20464;-90
2023/04/16 08:57:05;;;;;;;36.55;19.85;;;11.10;99.90;;;;;;5043039;28;20044;-91
2023/04/16 08:59:32;;;;;;;40.60;19.10;;;11.20;99.90;;;;;;5042726;28;20107;-90
2023/04/16 09:01:58;;;;;;;41.17;19.30;;;11.10;99.90;;;;;;5027428;28;20033;-90
2023/04/16 09:04:28;;;;;;;36.20;19.23;;;11.40;99.90;;;;;;5027738;28;20147;-90
2023/04/16 09:06:58;;;;;;;36.13;18.33;;;11.60;99.90;;;;;;5023128;28;20029;-91
2023/04/16 09:09:25;;;;;;;35.90;18.10;;;11.70;99.90;;;;;;5041841;28;20037;-90
2023/04/16 09:11:55;;;;;;;35.88;18.27;;;11.70;99.90;;;;;;5025938;28;20033;-91
2023/04/16 09:14:21;;;;;;;35.00;18.52;;;11.60;99.90;;;;;;5026651;28;20049;-91
2023/04/16 09:16:46;;;;;;;33.42;17.58;;;12.00;99.90;;;;;;5040892;28;20103;-90
2023/04/16 09:19:15;;;;;;;31.20;17.30;;;12.00;99.90;;;;;;5042631;28;20041;-91
2023/04/16 09:21:44;;;;;;;38.95;18.65;;;12.20;99.90;;;;;;5026973;28;20083;-91
2023/04/16 09:24:10;;;;;;;30.38;17.50;;;12.30;99.90;;;;;;5024764;28;20120;-91
2023/04/16 09:26:36;;;;;;;30.05;16.90;;;12.40;99.90;;;;;;5059209;28;20083;-92
2023/04/16 09:29:02;;;;;;;34.95;18.27;;;12.40;99.90;;;;;;5024814;28;20408;-91
2023/04/16 09:31:28;;;;;;;30.65;17.42;;;12.30;99.90;;;;;;5025880;28;20033;-91
2023/04/16 09:34:02;;;;;;;30.77;16.48;;;12.50;99.90;;;;;;5025458;28;20091;-91
2023/04/16 09:36:28;;;;;;;30.60;17.02;;;12.60;99.90;;;;;;5029186;28;20036;-90
2023/04/16 09:38:57;;;;;;;31.98;16.65;;;12.80;99.90;;;;;;5024752;28;20048;-90
2023/04/16 09:41:28;;;;;;;33.03;16.58;;;12.70;99.90;;;;;;5041920;28;20053;-90
2023/04/16 09:43:58;;;;;;;28.60;15.77;;;13.00;99.90;;;;;;5041614;28;20040;-90
2023/04/16 09:46:28;;;;;;;30.70;15.65;;;13.10;99.90;;;;;;5043048;28;20036;-91
2023/04/16 09:48:57;;;;;;;27.88;16.38;;;13.30;99.90;;;;;;5056608;28;20048;-91
2023/04/16 09:51:24;;;;;;;24.40;15.95;;;12.80;99.90;;;;;;5040156;28;20087;-90
2023/04/16 09:53:56;;;;;;;31.00;16.75;;;12.80;99.90;;;;;;5058541;28;20052;-91
2023/04/16 09:56:25;;;;;;;24.50;15.15;;;13.00;99.90;;;;;;5042703;28;20041;-91
2023/04/16 09:58:56;;;;;;;27.58;16.00;;;13.20;99.90;;;;;;5074831;28;20033;-90
2023/04/16 10:01:22;;;;;;;25.42;14.73;;;13.20;99.90;;;;;;5055901;28;20140;-90
2023/04/16 10:03:49;;;;;;;27.17;15.15;;;13.20;99.90;;;;;;5026676;28;20033;-90
2023/04/16 10:06:18;;;;;;;26.80;15.27;;;13.20;99.90;;;;;;5060402;28;20053;-91
2023/04/16 10:08:48;;;;;;;24.88;15.90;;;13.50;99.90;;;;;;5026784;28;20063;-91
2023/04/16 10:11:15;;;;;;;24.52;15.38;;;13.60;99.90;;;;;;5056235;28;20395;-90
2023/04/16 10:13:41;;;;;;;29.67;15.57;;;13.30;99.90;;;;;;5042589;28;20048;-91
2023/04/16 10:16:08;;;;;;;25.50;14.65;;;13.80;99.90;;;;;;5056831;28;20044;-91
2023/04/16 10:18:39;;;;;;;27.67;15.43;;;13.50;99.90;;;;;;5030142;28;20045;-91
2023/04/16 10:21:05;;;;;;;22.63;14.70;;;13.90;99.90;;;;;;5059167;28;20044;-91
2023/04/16 10:23:31;;;;;;;24.30;14.75;;;13.80;99.90;;;;;;5029220;28;20052;-90
2023/04/16 10:25:58;;;;;;;24.55;15.48;;;13.60;99.90;;;;;;5029699;28;20475;-89
2023/04/16 10:28:24;;;;;;;24.73;14.93;;;13.90;99.90;;;;;;5047354;28;20361;-90
2023/04/16 10:30:52;;;;;;;28.05;14.98;;;14.60;99.90;;;;;;5028457;28;20052;-90
2023/04/16 10:33:22;;;;;;;25.10;15.63;;;14.40;99.90;;;;;;5029382;28;20041;-91
2023/04/16 10:35:49;;;;;;;24.45;14.88;;;14.00;99.90;;;;;;5045586;28;20060;-91
2023/04/16 10:38:23;;;;;;;27.00;14.70;;;13.80;99.90;;;;;;5033667;28;20114;-90
2023/04/16 10:40:49;;;;;;;26.27;14.90;;;13.90;99.90;;;;;;5028105;28;20045;-90
2023/04/16 10:43:20;;;;;;;22.65;15.15;;;14.10;99.90;;;;;;5046249;28;20049;-91
2023/04/16 10:45:47;;;;;;;22.77;15.20;;;14.20;99.90;;;;;;5043809;28;20044;-91
2023/04/16 10:48:17;;;;;;;23.45;15.27;;;14.50;99.90;;;;;;5029720;28;20111;-91
2023/04/16 10:50:54;;;;;;;27.85;15.02;;;14.50;99.90;;;;;;5046097;28;20092;-91
2023/04/16 10:53:26;;;;;;;24.33;14.05;;;14.20;99.90;;;;;;5045421;28;20094;-90
2023/04/16 10:56:11;;;;;;;20.65;13.48;;;14.30;99.90;;;;;;5060064;28;20047;-92
2023/04/16 10:58:40;;;;;;;22.83;13.93;;;14.30;99.90;;;;;;5045013;28;20516;-90
2023/04/16 11:01:12;;;;;;;23.77;14.32;;;14.50;99.90;;;;;;5043523;28;20044;-90
2023/04/16 11:03:42;;;;;;;21.70;13.93;;;14.40;99.90;;;;;;5044588;28;20067;-91
2023/04/16 11:06:24;;;;;;;26.63;14.95;;;14.20;99.90;;;;;;5043297;28;20377;-90
2023/04/16 11:08:51;;;;;;;20.58;13.73;;;14.20;99.90;;;;;;5059446;28;20036;-90
2023/04/16 11:11:18;;;;;;;22.60;14.07;;;14.40;99.90;;;;;;5045702;28;20043;-91
2023/04/16 11:13:44;;;;;;;25.88;13.15;;;14.20;99.90;;;;;;5030128;28;20384;-90
2023/04/16 11:16:14;;;;;;;23.85;14.77;;;14.30;99.90;;;;;;5024511;28;20045;-91
2023/04/16 11:18:40;;;;;;;22.35;14.10;;;14.20;99.90;;;;;;5045014;28;20090;-90
2023/04/16 11:21:11;;;;;;;24.10;15.65;;;14.00;99.90;;;;;;5045643;28;20047;-90
2023/04/16 11:23:48;;;;;;;28.27;15.60;;;13.70;99.90;;;;;;5046304;28;20040;-90
2023/04/16 11:26:40;;;;;;;24.75;14.73;;;14.10;99.90;;;;;;5026896;28;20496;-91
2023/04/16 11:29:13;;;;;;;26.80;15.40;;;13.90;99.90;;;;;;5049464;28;20090;-91
2023/04/16 11:31:39;;;;;;;31.52;15.13;;;13.80;99.90;;;;;;5027049;28;20037;-91
2023/04/16 11:34:07;;;;;;;30.38;15.90;;;14.00;99.90;;;;;;5058779;28;20062;-90
2023/04/16 11:36:53;;;;;;;26.60;15.27;;;14.00;99.90;;;;;;5061314;28;20219;-91
2023/04/16 11:39:22;;;;;;;31.63;15.85;;;13.70;99.90;;;;;;5043661;28;20127;-90
2023/04/16 11:41:51;;;;;;;33.00;17.27;;;13.30;99.90;;;;;;5043304;28;20179;-90
2023/04/16 11:44:18;;;;;;;31.42;17.17;;;13.60;99.90;;;;;;5027208;28;20056;-89
2023/04/16 11:46:43;;;;;;;34.40;16.70;;;13.60;99.90;;;;;;5060611;28;20033;-90
2023/04/16 11:49:09;;;;;;;24.52;14.80;;;13.70;99.90;;;;;;5043492;28;20041;-90
2023/04/16 11:51:40;;;;;;;24.55;16.17;;;13.80;99.90;;;;;;5029607;28;20060;-90
2023/04/16 11:54:09;;;;;;;25.20;16.08;;;13.90;99.90;;;;;;5028424;28;20036;-90
2023/04/16 11:56:41;;;;;;;27.90;16.40;;;14.10;99.90;;;;;;5044723;28;20131;-90
2023/04/16 11:59:19;;;;;;;31.58;17.63;;;13.40;99.90;;;;;;5047728;28;20036;-90
2023/04/16 12:01:47;;;;;;;31.25;16.88;;;13.80;99.90;;;;;;5031029;28;20521;-90
2023/04/16 12:04:14;;;;;;;29.50;16.17;;;13.70;99.90;;;;;;5045176;28;20144;-90
2023/04/16 12:07:00;;;;;;;27.50;16.80;;;13.50;99.90;;;;;;5029465;28;20040;-89
2023/04/16 12:09:29;;;;;;;25.30;17.08;;;13.90;99.90;;;;;;5027585;28;20041;-91
2023/04/16 12:11:55;;;;;;;27.90;16.92;;;13.90;99.90;;;;;;5027034;28;20037;-90
2023/04/16 12:14:21;;;;;;;27.70;15.95;;;14.00;99.90;;;;;;5028736;28;20142;-90
2023/04/16 12:16:47;;;;;;;28.80;17.45;;;14.10;99.90;;;;;;5027668;28;20037;-90
2023/04/16 12:19:13;;;;;;;27.08;16.30;;;14.20;99.90;;;;;;5043994;28;20100;-90
2023/04/16 12:21:40;;;;;;;26.42;16.65;;;14.30;99.90;;;;;;5046301;28;20099;-89
2023/04/16 12:24:07;;;;;;;23.92;16.38;;;14.20;99.90;;;;;;5059118;28;20048;-90
2023/04/16 12:26:47;;;;;;;32.20;17.70;;;14.10;99.90;;;;;;5046919;28;20098;-89
2023/04/16 12:29:24;;;;;;;27.60;17.05;;;14.10;99.90;;;;;;5026617;28;20448;-91